Time;durP1;ratioP1;P1;durP2;ratioP2;P2;SDS_P1;SDS_P2;PMS_P1;PMS_P2;Temp;Humidity;BMP_temperature;BMP_pressure;BME280_temperature;BME280_humidity;BME280_pressure;Samples;Min_cycle;Max_cycle;Signal;HPM_P1;HPM_P2
2022/07/20 00:01:53;;;;;;;6.25;4.30;;;32.70;38.10;;;;;;5982555;29;20034;-73
2022/07/20 00:04:54;;;;;;;7.80;3.88;;;32.70;38.30;;;;;;5972691;29;20042;-74
2022/07/20 00:07:55;;;;;;;5.65;4.03;;;32.60;38.40;;;;;;6006143;29;20509;-74
2022/07/20 00:14:15;;;;;;;6.43;3.85;;;32.50;38.70;;;;;;6003667;29;20083;-74
2022/07/20 00:17:16;;;;;;;7.45;4.60;;;32.50;38.80;;;;;;5991373;29;20096;-73
2022/07/20 00:20:17;;;;;;;6.78;4.13;;;32.50;38.80;;;;;;6005425;29;20058;-75
2022/07/20 00:23:18;;;;;;;5.05;4.45;;;32.40;38.80;;;;;;5990448;29;20049;-73
2022/07/20 00:26:19;;;;;;;7.85;4.20;;;32.40;38.90;;;;;;5980051;29;20047;-74
2022/07/20 00:29:19;;;;;;;4.63;4.20;;;32.30;39.10;;;;;;5993728;29;20038;-73
2022/07/20 00:32:21;;;;;;;7.20;4.07;;;32.20;39.20;;;;;;5989801;29;20089;-75
2022/07/20 00:35:21;;;;;;;7.70;4.32;;;32.20;39.40;;;;;;5982400;29;20513;-75
2022/07/20 00:38:22;;;;;;;5.50;4.25;;;32.10;39.40;;;;;;5989359;29;20079;-74
2022/07/20 00:41:23;;;;;;;5.45;4.05;;;32.10;39.50;;;;;;6004524;29;20037;-73
2022/07/20 00:44:24;;;;;;;7.13;4.10;;;32.10;39.50;;;;;;5978460;29;20473;-73
2022/07/20 00:47:25;;;;;;;10.55;4.50;;;32.10;39.50;;;;;;5989433;29;20075;-73
2022/07/20 00:50:27;;;;;;;7.15;4.55;;;32.10;39.40;;;;;;5989843;29;20284;-73
2022/07/20 00:53:28;;;;;;;7.20;4.45;;;32.00;39.50;;;;;;6004204;29;20047;-74
2022/07/20 00:56:29;;;;;;;9.43;4.72;;;32.00;39.50;;;;;;5989603;29;20150;-73
2022/07/20 00:59:30;;;;;;;5.88;4.50;;;32.00;39.70;;;;;;6004062;29;20049;-74
2022/07/20 01:02:31;;;;;;;13.48;4.70;;;31.90;39.70;;;;;;5966426;29;20440;-74
2022/07/20 01:05:33;;;;;;;6.03;4.22;;;31.90;39.90;;;;;;5988025;29;20425;-75
2022/07/20 01:08:35;;;;;;;7.68;4.20;;;31.80;40.00;;;;;;6004210;29;20034;-74
2022/07/20 01:11:36;;;;;;;5.95;4.30;;;31.70;40.20;;;;;;5990342;29;20477;-74
2022/07/20 01:14:37;;;;;;;11.52;4.45;;;31.60;40.30;;;;;;5989665;29;20030;-74
2022/07/20 01:17:38;;;;;;;9.20;4.57;;;31.60;40.40;;;;;;5991055;29;20030;-74
2022/07/20 01:20:47;;;;;;;10.07;4.70;;;31.60;40.60;;;;;;5984625;29;20030;-74
2022/07/20 01:23:48;;;;;;;7.80;4.35;;;31.50;40.70;;;;;;5989034;29;20040;-74
2022/07/20 01:26:49;;;;;;;11.77;4.78;;;31.50;40.70;;;;;;6003973;29;20038;-74
2022/07/20 01:29:50;;;;;;;4.88;4.38;;;31.50;40.80;;;;;;5977825;29;20058;-74
2022/07/20 01:32:50;;;;;;;6.35;4.68;;;31.40;40.80;;;;;;5963238;29;20041;-74
2022/07/20 01:35:51;;;;;;;8.68;4.32;;;31.40;41.00;;;;;;5985670;29;20041;-74
2022/07/20 01:38:52;;;;;;;8.48;4.88;;;31.30;41.10;;;;;;5981794;29;20030;-74
2022/07/20 01:41:53;;;;;;;9.45;4.97;;;31.30;41.30;;;;;;5987512;29;20047;-74
2022/07/20 01:44:54;;;;;;;7.80;4.60;;;31.30;41.40;;;;;;5988782;29;20038;-74
2022/07/20 01:47:55;;;;;;;9.43;5.05;;;31.20;41.40;;;;;;5988935;29;20037;-74
2022/07/20 01:50:56;;;;;;;5.68;4.55;;;31.20;41.60;;;;;;5989041;29;20035;-74
2022/07/20 01:53:57;;;;;;;6.95;4.80;;;31.10;42.30;;;;;;6003604;29;20066;-74
2022/07/20 01:56:58;;;;;;;9.38;4.93;;;31.20;41.70;;;;;;6004037;29;20103;-74
2022/07/20 01:59:59;;;;;;;5.88;4.60;;;31.30;41.60;;;;;;5988479;29;20034;-73
2022/07/20 02:03:00;;;;;;;6.57;4.53;;;31.30;41.50;;;;;;5989440;29;20038;-74
2022/07/20 02:06:01;;;;;;;6.95;4.78;;;31.30;41.60;;;;;;5990106;29;20034;-74
2022/07/20 02:09:02;;;;;;;10.45;4.38;;;31.20;41.70;;;;;;5989886;29;20057;-74
2022/07/20 02:12:03;;;;;;;12.55;4.80;;;31.20;41.90;;;;;;5989954;29;20058;-74
2022/07/20 02:15:09;;;;;;;8.40;5.00;;;31.10;42.00;;;;;;6003747;29;20031;-74
2022/07/20 02:18:12;;;;;;;5.93;4.50;;;31.00;42.10;;;;;;6003027;29;20369;-74
2022/07/20 02:21:14;;;;;;;7.55;4.47;;;31.10;42.20;;;;;;5987348;29;20042;-74
2022/07/20 02:24:15;;;;;;;15.02;4.97;;;31.00;42.10;;;;;;5988634;29;20034;-74
2022/07/20 02:27:16;;;;;;;8.38;4.63;;;31.00;42.10;;;;;;5985940;29;20049;-74
2022/07/20 02:30:17;;;;;;;6.47;5.05;;;31.00;42.30;;;;;;5986397;29;20030;-74
2022/07/20 02:33:18;;;;;;;7.93;5.05;;;30.90;42.40;;;;;;6001009;29;20073;-74
2022/07/20 02:36:19;;;;;;;8.57;5.10;;;30.80;42.60;;;;;;5985260;29;20043;-74
2022/07/20 02:39:20;;;;;;;9.23;4.55;;;30.80;43.40;;;;;;5963665;29;20499;-74
2022/07/20 02:42:21;;;;;;;7.28;4.95;;;30.70;42.80;;;;;;5979410;29;20034;-74
2022/07/20 02:45:22;;;;;;;8.60;4.85;;;30.60;42.90;;;;;;5980762;29;20061;-74
2022/07/20 02:48:23;;;;;;;5.75;4.57;;;30.60;43.00;;;;;;5972724;29;20112;-74
2022/07/20 02:51:24;;;;;;;9.10;4.95;;;30.60;43.10;;;;;;6002871;29;20034;-74
2022/07/20 02:54:25;;;;;;;4.95;4.43;;;30.70;43.10;;;;;;5987638;29;20061;-74
2022/07/20 02:57:25;;;;;;;7.32;4.78;;;30.70;43.60;;;;;;5987975;29;20045;-74
2022/07/20 03:00:27;;;;;;;7.72;5.05;;;30.80;43.00;;;;;;6002147;29;20034;-74
2022/07/20 03:03:28;;;;;;;12.40;4.55;;;30.70;43.00;;;;;;6002369;29;20061;-73
2022/07/20 03:06:29;;;;;;;7.55;4.68;;;30.70;43.00;;;;;;5980010;29;20372;-74
2022/07/20 03:09:29;;;;;;;6.38;4.50;;;30.70;43.10;;;;;;5979232;29;20107;-74
2022/07/20 03:12:30;;;;;;;5.93;4.75;;;30.60;43.10;;;;;;5987857;29;20448;-74
2022/07/20 03:15:32;;;;;;;16.77;5.07;;;30.50;43.20;;;;;;5987514;29;20034;-74
2022/07/20 03:18:32;;;;;;;11.60;4.57;;;30.60;43.40;;;;;;6002268;29;20460;-74
2022/07/20 03:21:33;;;;;;;6.53;5.05;;;30.60;43.20;;;;;;6000581;29;20094;-74
2022/07/20 03:24:34;;;;;;;9.77;5.38;;;30.70;43.10;;;;;;5965672;29;20050;-74
2022/07/20 03:27:36;;;;;;;6.68;5.07;;;30.70;43.10;;;;;;6000671;29;20134;-74
2022/07/20 03:30:37;;;;;;;8.65;4.68;;;30.70;43.70;;;;;;5954074;29;20045;-74
2022/07/20 03:33:38;;;;;;;6.30;4.78;;;30.60;43.10;;;;;;5990944;29;20026;-74
2022/07/20 03:36:38;;;;;;;9.65;5.45;;;30.60;43.20;;;;;;5993892;29;20113;-74
2022/07/20 03:39:39;;;;;;;8.50;4.53;;;30.50;43.30;;;;;;5992700;29;20034;-73
2022/07/20 03:42:40;;;;;;;10.27;5.10;;;30.40;43.30;;;;;;5992086;29;20392;-73
2022/07/20 03:45:41;;;;;;;8.45;4.97;;;30.40;43.40;;;;;;5992405;29;20448;-73
2022/07/20 03:48:42;;;;;;;5.15;4.38;;;30.40;43.40;;;;;;6008365;29;20435;-73
2022/07/20 03:51:43;;;;;;;9.80;4.82;;;30.40;43.40;;;;;;5991928;29;20033;-74
2022/07/20 03:54:44;;;;;;;11.10;5.32;;;30.40;43.40;;;;;;6006250;29;20050;-73
2022/07/20 03:57:45;;;;;;;10.43;5.07;;;30.40;43.40;;;;;;5986301;29;20046;-73
2022/07/20 04:00:46;;;;;;;11.07;4.90;;;30.40;43.40;;;;;;5991197;29;20050;-75
2022/07/20 04:03:47;;;;;;;6.60;4.50;;;30.30;43.40;;;;;;5970169;29;20034;-74
2022/07/20 04:06:48;;;;;;;10.32;4.90;;;30.40;43.50;;;;;;6003025;29;20026;-74
2022/07/20 04:09:48;;;;;;;9.40;5.35;;;30.40;43.40;;;;;;6005105;29;20410;-74
2022/07/20 04:12:49;;;;;;;9.43;5.47;;;30.40;43.40;;;;;;5990376;29;20441;-74
2022/07/20 04:15:50;;;;;;;9.30;4.88;;;30.40;43.40;;;;;;5990571;29;20030;-74
2022/07/20 04:18:51;;;;;;;5.80;5.18;;;30.40;43.40;;;;;;5988371;29;20038;-74
2022/07/20 04:21:58;;;;;;;19.88;5.63;;;30.40;43.50;;;;;;5987549;29;20035;-74
2022/07/20 04:24:59;;;;;;;17.57;5.83;;;30.30;43.70;;;;;;5984756;29;20030;-74
2022/07/20 04:28:00;;;;;;;10.65;5.10;;;30.30;43.90;;;;;;6002908;29;20045;-74
2022/07/20 04:31:01;;;;;;;14.05;5.57;;;30.30;44.10;;;;;;5989373;29;20030;-74
2022/07/20 04:34:02;;;;;;;11.02;5.55;;;30.20;44.10;;;;;;6005855;29;20117;-75
2022/07/20 04:37:03;;;;;;;6.20;5.32;;;30.20;44.10;;;;;;6004886;29;20058;-74
2022/07/20 04:40:05;;;;;;;10.82;5.55;;;30.20;44.10;;;;;;5989948;29;20046;-74
2022/07/20 04:43:06;;;;;;;11.88;5.25;;;30.20;44.10;;;;;;5989477;29;20135;-73
2022/07/20 04:46:07;;;;;;;12.68;5.45;;;30.20;44.10;;;;;;5982822;29;20038;-74
2022/07/20 04:49:09;;;;;;;7.60;5.45;;;30.20;44.10;;;;;;5990637;29;20041;-74
2022/07/20 04:52:10;;;;;;;9.98;5.40;;;30.30;44.10;;;;;;5990901;29;20031;-74
2022/07/20 04:55:11;;;;;;;8.98;6.25;;;30.40;44.00;;;;;;5994224;29;20034;-74
2022/07/20 04:58:12;;;;;;;7.53;5.30;;;30.40;44.00;;;;;;5969326;29;20039;-74
2022/07/20 05:01:13;;;;;;;9.05;6.28;;;30.40;44.00;;;;;;6004763;29;20045;-74
2022/07/20 05:04:14;;;;;;;13.82;6.05;;;30.40;44.10;;;;;;6003967;29;20137;-74
2022/07/20 05:07:15;;;;;;;8.32;5.78;;;30.40;44.10;;;;;;5989635;29;20086;-74
2022/07/20 05:10:16;;;;;;;6.00;5.18;;;30.40;44.20;;;;;;6004029;29;20041;-74
2022/07/20 05:13:17;;;;;;;9.82;5.63;;;30.30;44.30;;;;;;5989138;29;20442;-74
2022/07/20 05:16:18;;;;;;;10.80;6.07;;;30.30;44.30;;;;;;6003106;29;20121;-74
2022/07/20 05:19:18;;;;;;;12.45;5.80;;;30.30;44.30;;;;;;6002614;29;20050;-74
2022/07/20 05:22:19;;;;;;;9.98;5.63;;;30.30;44.30;;;;;;6002229;29;20369;-74
2022/07/20 05:25:21;;;;;;;22.38;6.15;;;30.30;44.30;;;;;;5985867;29;20113;-74
2022/07/20 05:28:22;;;;;;;14.52;6.30;;;30.30;44.40;;;;;;5989512;29;20049;-74
2022/07/20 05:31:23;;;;;;;7.10;5.82;;;30.30;44.50;;;;;;5985008;29;20453;-74
2022/07/20 05:34:23;;;;;;;11.27;6.70;;;30.40;44.70;;;;;;5990606;29;20165;-73
2022/07/20 05:37:24;;;;;;;12.25;6.03;;;30.40;44.70;;;;;;5988456;29;20342;-74
2022/07/20 05:40:25;;;;;;;12.55;6.70;;;30.30;44.60;;;;;;5989312;29;20046;-74
2022/07/20 05:43:26;;;;;;;12.82;6.25;;;30.40;44.60;;;;;;5968303;29;20465;-73
2022/07/20 05:46:28;;;;;;;10.38;6.20;;;30.40;44.60;;;;;;6003217;29;20045;-75
2022/07/20 05:49:29;;;;;;;7.80;6.13;;;30.40;44.50;;;;;;5988609;29;20049;-72
2022/07/20 05:52:29;;;;;;;11.95;6.25;;;30.50;44.50;;;;;;6000953;29;20062;-76
2022/07/20 05:55:31;;;;;;;10.50;6.55;;;30.50;44.40;;;;;;6003466;29;20429;-73
2022/07/20 05:58:33;;;;;;;14.10;6.70;;;30.50;44.40;;;;;;6002920;29;20105;-73
2022/07/20 06:01:34;;;;;;;8.45;6.22;;;30.50;44.40;;;;;;5990718;29;20034;-74
2022/07/20 06:04:35;;;;;;;15.07;6.25;;;30.50;44.40;;;;;;6003031;29;20433;-74
2022/07/20 06:07:36;;;;;;;14.18;7.18;;;30.50;44.30;;;;;;6002500;29;20520;-75
2022/07/20 06:10:37;;;;;;;9.32;6.43;;;30.60;44.30;;;;;;5985388;29;20042;-75
2022/07/20 06:13:38;;;;;;;8.25;6.05;;;30.60;44.20;;;;;;5988289;29;20027;-75
2022/07/20 06:16:39;;;;;;;15.75;5.78;;;30.60;44.10;;;;;;5983821;29;20053;-73
2022/07/20 06:19:40;;;;;;;13.10;6.63;;;30.70;44.20;;;;;;6001883;29;20559;-72
2022/07/20 06:22:43;;;;;;;11.68;6.00;;;30.70;44.20;;;;;;6001803;29;20223;-73
2022/07/20 06:25:44;;;;;;;14.25;6.45;;;30.80;44.10;;;;;;5987776;29;20445;-74
2022/07/20 06:28:46;;;;;;;12.15;6.47;;;30.80;43.80;;;;;;5987935;29;20041;-74
2022/07/20 06:31:47;;;;;;;9.05;6.35;;;30.80;43.70;;;;;;6002746;29;20475;-73
2022/07/20 06:34:48;;;;;;;7.75;6.07;;;30.90;43.60;;;;;;5998371;29;20027;-73
2022/07/20 06:37:49;;;;;;;11.07;6.65;;;30.90;43.50;;;;;;5987917;29;20404;-75
2022/07/20 06:40:50;;;;;;;14.20;6.22;;;31.00;43.50;;;;;;6002308;29;20514;-74
2022/07/20 06:43:51;;;;;;;11.60;6.57;;;31.10;43.40;;;;;;5988324;29;20023;-74
2022/07/20 06:46:52;;;;;;;13.48;6.80;;;31.20;43.20;;;;;;5987462;29;20035;-74
2022/07/20 06:49:53;;;;;;;12.07;6.63;;;31.20;43.10;;;;;;5987648;29;20448;-74
2022/07/20 06:52:54;;;;;;;11.32;6.38;;;31.20;43.00;;;;;;5987700;29;20103;-74
2022/07/20 06:55:55;;;;;;;11.45;6.13;;;31.30;42.90;;;;;;6002205;29;20035;-75
2022/07/20 06:58:56;;;;;;;8.15;6.15;;;31.40;42.80;;;;;;5986147;29;20084;-74
2022/07/20 07:01:57;;;;;;;10.57;7.00;;;31.40;42.80;;;;;;5987025;29;20053;-75
2022/07/20 07:04:58;;;;;;;9.40;6.15;;;31.50;42.70;;;;;;5982340;29;20187;-75
2022/07/20 07:07:59;;;;;;;10.63;6.70;;;31.50;42.70;;;;;;6004632;29;20034;-76
2022/07/20 07:10:59;;;;;;;13.88;6.75;;;31.60;42.60;;;;;;5988152;29;20062;-75
2022/07/20 07:14:01;;;;;;;10.43;5.90;;;31.70;42.50;;;;;;5990758;29;20065;-75
2022/07/20 07:17:01;;;;;;;7.53;5.90;;;31.90;42.30;;;;;;6006657;29;20650;-75
2022/07/20 07:20:03;;;;;;;7.25;5.80;;;32.00;42.10;;;;;;5991507;29;20074;-74
2022/07/20 07:23:04;;;;;;;15.38;6.15;;;32.10;41.90;;;;;;6005973;29;20448;-75
2022/07/20 07:26:05;;;;;;;11.65;6.10;;;32.10;41.70;;;;;;5991039;29;20080;-75
2022/07/20 07:29:07;;;;;;;14.88;5.95;;;32.30;41.50;;;;;;5992690;29;20035;-74
2022/07/20 07:32:08;;;;;;;9.00;6.38;;;32.40;41.30;;;;;;5991536;29;20053;-75
2022/07/20 07:35:09;;;;;;;11.90;6.10;;;32.40;41.00;;;;;;5985762;29;20038;-76
2022/07/20 07:38:13;;;;;;;9.77;5.97;;;32.50;40.90;;;;;;5991928;29;20030;-79
2022/07/20 07:41:14;;;;;;;11.27;6.53;;;32.60;40.80;;;;;;6002620;29;20041;-73
2022/07/20 07:44:15;;;;;;;9.25;6.28;;;32.70;40.60;;;;;;6005857;29;20034;-75
2022/07/20 07:47:15;;;;;;;11.57;6.00;;;32.80;40.40;;;;;;6005785;29;20034;-75
2022/07/20 07:50:16;;;;;;;10.75;6.40;;;32.90;40.30;;;;;;5990233;29;20057;-74
2022/07/20 07:53:17;;;;;;;12.43;6.90;;;33.00;40.00;;;;;;5980099;29;20202;-72
2022/07/20 07:56:18;;;;;;;11.13;5.90;;;33.10;39.90;;;;;;5988142;29;20030;-73
2022/07/20 07:59:19;;;;;;;8.52;5.63;;;33.20;39.60;;;;;;5988251;29;20083;-73
2022/07/20 08:02:20;;;;;;;10.40;6.07;;;33.30;39.60;;;;;;5999568;29;20448;-73
2022/07/20 08:05:22;;;;;;;12.18;6.50;;;33.40;39.40;;;;;;5963471;29;20031;-73
2022/07/20 08:08:23;;;;;;;9.82;6.25;;;33.50;39.00;;;;;;5986576;29;20038;-74
2022/07/20 08:11:24;;;;;;;9.80;5.80;;;33.70;38.90;;;;;;5988039;29;20098;-74
2022/07/20 08:14:25;;;;;;;7.78;6.22;;;33.80;38.50;;;;;;5990004;29;20046;-74
2022/07/20 08:17:26;;;;;;;15.20;6.63;;;33.90;38.40;;;;;;5990670;29;20050;-73
2022/07/20 08:20:27;;;;;;;8.90;5.72;;;34.10;38.20;;;;;;5981758;29;20042;-74
2022/07/20 08:23:28;;;;;;;7.40;6.35;;;34.20;37.80;;;;;;6005193;29;20377;-73
2022/07/20 08:26:29;;;;;;;7.75;5.75;;;34.30;37.60;;;;;;5989556;29;20039;-73
2022/07/20 08:29:30;;;;;;;8.35;5.88;;;34.40;37.40;;;;;;5979864;29;20030;-74
2022/07/20 08:32:32;;;;;;;9.98;5.72;;;34.50;37.20;;;;;;5989479;29;20356;-74
2022/07/20 08:35:33;;;;;;;7.95;5.45;;;34.60;37.00;;;;;;5989900;29;20046;-74
2022/07/20 08:38:34;;;;;;;7.78;5.70;;;34.60;36.90;;;;;;5990271;29;20065;-74
2022/07/20 08:41:35;;;;;;;7.43;5.75;;;34.70;36.80;;;;;;5991564;29;20125;-73
2022/07/20 08:44:38;;;;;;;8.25;6.20;;;34.70;36.70;;;;;;5989340;29;20440;-74
2022/07/20 08:47:41;;;;;;;10.23;6.35;;;34.80;36.60;;;;;;5964109;29;20103;-73
2022/07/20 08:50:42;;;;;;;14.27;6.18;;;34.80;36.50;;;;;;6003217;29;20023;-72
2022/07/20 08:53:43;;;;;;;19.05;6.43;;;34.80;36.40;;;;;;6001977;29;20156;-75
2022/07/20 08:56:44;;;;;;;12.50;5.57;;;34.80;36.40;;;;;;5988722;29;20032;-74
2022/07/20 08:59:47;;;;;;;11.50;6.45;;;34.80;36.40;;;;;;5988043;29;20049;-72
2022/07/20 09:03:03;;;;;;;10.70;6.47;;;34.80;36.40;;;;;;5987405;29;20038;-74
2022/07/20 09:06:06;;;;;;;13.48;6.40;;;34.80;36.40;;;;;;5987640;29;20054;-73
2022/07/20 09:09:07;;;;;;;11.98;5.70;;;34.80;36.40;;;;;;5989860;29;20472;-74
2022/07/20 09:12:08;;;;;;;11.60;6.57;;;34.80;36.40;;;;;;5989767;29;20122;-74
2022/07/20 09:15:25;;;;;;;15.65;5.82;;;34.80;37.00;;;;;;5987638;29;20034;-74
2022/07/20 09:18:31;;;;;;;8.05;6.03;;;34.90;36.30;;;;;;5989055;29;20042;-75
2022/07/20 09:21:33;;;;;;;10.20;6.70;;;34.90;36.20;;;;;;5982037;29;20068;-75
2022/07/20 09:24:34;;;;;;;11.23;5.75;;;35.10;36.10;;;;;;5989109;29;20052;-75
2022/07/20 09:27:37;;;;;;;8.88;5.20;;;35.10;36.00;;;;;;6002574;29;20491;-76
2022/07/20 09:30:38;;;;;;;11.70;5.65;;;35.20;35.90;;;;;;5989122;29;20049;-75
2022/07/20 09:33:40;;;;;;;12.68;5.72;;;35.20;35.70;;;;;;5989152;29;20033;-75
2022/07/20 09:36:44;;;;;;;11.57;5.78;;;35.20;35.60;;;;;;5989330;29;20030;-73
2022/07/20 09:40:05;;;;;;;17.98;5.72;;;35.20;35.50;;;;;;5989224;29;20034;-74
2022/07/20 09:43:08;;;;;;;18.50;5.85;;;35.30;35.40;;;;;;5988275;29;20045;-74
2022/07/20 09:46:13;;;;;;;8.48;4.97;;;35.40;35.20;;;;;;5987414;29;20034;-75
2022/07/20 09:49:14;;;;;;;9.50;5.30;;;35.40;35.00;;;;;;5986260;29;20050;-75
2022/07/20 09:52:15;;;;;;;14.18;5.90;;;35.50;34.80;;;;;;5985166;29;20050;-74
2022/07/20 09:55:16;;;;;;;12.23;5.35;;;35.60;34.70;;;;;;6000889;29;20039;-74
2022/07/20 09:58:22;;;;;;;13.05;5.30;;;35.70;34.50;;;;;;5983242;29;20112;-74
2022/07/20 10:01:29;;;;;;;7.53;5.28;;;35.70;34.40;;;;;;5996939;29;20087;-74
2022/07/20 10:04:33;;;;;;;6.07;5.47;;;35.80;34.20;;;;;;5988397;29;20113;-76
2022/07/20 10:07:34;;;;;;;8.35;4.85;;;35.90;34.00;;;;;;6002754;29;20034;-75
2022/07/20 10:10:35;;;;;;;7.20;4.93;;;35.90;33.80;;;;;;5988586;29;20298;-74
2022/07/20 10:13:38;;;;;;;7.07;5.05;;;36.00;33.60;;;;;;5987880;29;20035;-75
2022/07/20 10:16:45;;;;;;;15.95;8.45;;;36.10;33.30;;;;;;5988430;29;20361;-74
2022/07/20 10:19:47;;;;;;;;;;;36.10;33.00;;;;;;5988892;29;20031;-74
2022/07/20 10:23:14;;;;;;;8.25;5.20;;;36.30;32.80;;;;;;5988161;29;19912;-73
2022/07/20 10:26:33;;;;;;;6.45;4.53;;;36.30;32.60;;;;;;5984719;29;20034;-76
2022/07/20 10:29:38;;;;;;;9.38;5.10;;;36.30;32.50;;;;;;5986679;29;20035;-74
2022/07/20 10:32:51;;;;;;;6.70;4.55;;;36.40;32.20;;;;;;5988098;29;20054;-75
2022/07/20 10:36:41;;;;;;;6.88;4.95;;;36.50;32.00;;;;;;5988245;29;20036;-75
2022/07/20 10:39:40;;;;;;;11.27;5.30;;;36.50;31.50;;;;;;5982534;29;20055;-73
2022/07/20 10:42:53;;;;;;;5.78;4.65;;;36.50;31.30;;;;;;6002096;29;20452;-74
2022/07/20 10:45:54;;;;;;;6.03;4.18;;;36.70;30.90;;;;;;5990737;29;20092;-75
2022/07/20 10:48:54;;;;;;;6.93;4.72;;;36.80;30.50;;;;;;6004555;29;20038;-75
2022/07/20 10:52:27;;;;;;;8.70;4.45;;;36.80;30.30;;;;;;5990044;29;20034;-75
2022/07/20 10:55:37;;;;;;;5.90;4.25;;;36.70;30.00;;;;;;5988742;29;20050;-74
2022/07/20 10:58:42;;;;;;;10.80;4.75;;;36.90;29.90;;;;;;5989561;29;20042;-75
2022/07/20 11:01:45;;;;;;;7.78;4.70;;;36.90;29.60;;;;;;5991735;29;20484;-74
2022/07/20 11:04:46;;;;;;;5.57;4.18;;;37.00;29.50;;;;;;6005826;29;20098;-73
2022/07/20 11:07:47;;;;;;;5.82;4.22;;;37.10;29.30;;;;;;5971683;29;20059;-74
2022/07/20 11:10:48;;;;;;;6.70;4.30;;;37.80;28.60;;;;;;5982274;29;20061;-73
2022/07/20 11:13:50;;;;;;;6.20;3.92;;;38.80;27.60;;;;;;5981879;29;20512;-75
2022/07/20 11:16:54;;;;;;;8.27;4.32;;;39.60;26.80;;;;;;5968335;29;20026;-74
2022/07/20 11:19:55;;;;;;;11.48;4.15;;;40.30;26.30;;;;;;5990418;29;20041;-73
2022/07/20 11:22:57;;;;;;;8.57;4.28;;;40.80;25.90;;;;;;5991123;29;20066;-74
2022/07/20 11:26:00;;;;;;;5.60;4.70;;;41.20;25.70;;;;;;5990823;29;20038;-73
2022/07/20 11:29:01;;;;;;;5.45;4.00;;;41.50;25.30;;;;;;5989807;29;20364;-72
2022/07/20 11:32:09;;;;;;;5.60;4.53;;;41.70;25.20;;;;;;5991124;29;20065;-73
2022/07/20 11:35:11;;;;;;;6.53;4.30;;;41.90;24.80;;;;;;5991329;29;20023;-74
2022/07/20 11:38:12;;;;;;;6.93;4.20;;;42.10;24.50;;;;;;5990119;29;20457;-73
2022/07/20 11:41:22;;;;;;;8.18;4.55;;;42.20;24.20;;;;;;5989271;29;20037;-74
2022/07/20 11:44:23;;;;;;;8.32;3.92;;;42.30;24.20;;;;;;5988264;29;20072;-74
2022/07/20 11:47:24;;;;;;;10.82;4.55;;;42.40;24.20;;;;;;5988549;29;20179;-74
2022/07/20 11:50:32;;;;;;;9.68;4.10;;;42.40;24.30;;;;;;5988588;29;20026;-75
2022/07/20 11:53:40;;;;;;;8.23;4.80;;;42.20;24.20;;;;;;5988969;29;20050;-74
2022/07/20 11:56:41;;;;;;;10.50;4.35;;;42.20;24.40;;;;;;5971081;29;20057;-73
2022/07/20 11:59:45;;;;;;;5.60;3.85;;;42.20;24.50;;;;;;6005549;29;20030;-74
2022/07/20 12:02:46;;;;;;;6.70;4.50;;;42.20;24.30;;;;;;5968196;29;20035;-74
2022/07/20 12:05:47;;;;;;;6.22;4.00;;;41.90;24.50;;;;;;5990767;29;20045;-74
2022/07/20 12:09:05;;;;;;;9.10;4.15;;;41.90;24.60;;;;;;5989999;29;20030;-74
2022/07/20 12:12:08;;;;;;;7.78;4.15;;;41.90;24.40;;;;;;6004537;29;20131;-74
2022/07/20 12:15:09;;;;;;;6.63;4.80;;;42.00;24.10;;;;;;5989215;29;20042;-76
2022/07/20 12:18:10;;;;;;;7.43;4.60;;;42.00;24.60;;;;;;5990367;29;20138;-76
2022/07/20 12:21:24;;;;;;;6.57;4.30;;;41.80;24.60;;;;;;5990831;29;20031;-75
2022/07/20 12:24:25;;;;;;;6.25;4.47;;;41.70;24.50;;;;;;5987716;29;20109;-74
2022/07/20 12:27:28;;;;;;;7.50;4.43;;;41.80;24.30;;;;;;5988999;29;20050;-75
2022/07/20 12:30:34;;;;;;;7.72;4.70;;;42.00;24.20;;;;;;5989978;29;20049;-74
2022/07/20 12:33:35;;;;;;;4.75;4.10;;;42.00;24.10;;;;;;5985494;29;20464;-76
2022/07/20 12:36:49;;;;;;;5.82;4.03;;;42.00;24.20;;;;;;5973378;29;20528;-76
2022/07/20 12:39:54;;;;;;;6.32;4.10;;;41.70;24.30;;;;;;5987125;29;20090;-75
2022/07/20 12:42:55;;;;;;;5.28;4.20;;;41.50;24.60;;;;;;6002146;29;20038;-75
2022/07/20 12:45:59;;;;;;;8.55;4.65;;;41.60;24.60;;;;;;5987744;29;20528;-75
2022/07/20 12:49:02;;;;;;;6.15;4.65;;;41.70;24.50;;;;;;5987205;29;20030;-75
2022/07/20 12:52:03;;;;;;;5.32;4.82;;;41.60;24.60;;;;;;5975151;29;20083;-75
2022/07/20 12:55:04;;;;;;;7.65;4.40;;;41.50;24.80;;;;;;5990222;29;20042;-75
2022/07/20 12:58:05;;;;;;;13.20;4.60;;;41.20;25.10;;;;;;5989766;29;20412;-74
2022/07/20 13:01:06;;;;;;;14.70;4.93;;;40.60;25.70;;;;;;5989328;29;20079;-75
2022/07/20 13:04:07;;;;;;;9.07;5.20;;;40.10;26.30;;;;;;5989332;29;20030;-73
2022/07/20 13:07:07;;;;;;;6.18;4.80;;;39.60;26.80;;;;;;5988147;29;20038;-74
2022/07/20 13:10:09;;;;;;;9.10;5.00;;;39.20;27.20;;;;;;5989598;29;20357;-75
2022/07/20 13:13:10;;;;;;;8.52;5.47;;;38.80;27.50;;;;;;5989869;29;20504;-75
2022/07/20 13:16:11;;;;;;;7.80;4.50;;;38.50;28.00;;;;;;5989892;29;20030;-75
2022/07/20 13:19:12;;;;;;;8.77;4.60;;;38.20;28.20;;;;;;5989583;29;20254;-75
2022/07/20 13:22:14;;;;;;;6.90;4.55;;;38.30;28.20;;;;;;5988375;29;20377;-75
2022/07/20 13:25:23;;;;;;;7.50;4.85;;;38.50;28.00;;;;;;6310845;27;20389;-74
2022/07/20 13:28:24;;;;;;;7.55;4.72;;;38.30;28.10;;;;;;6306608;28;20039;-74
2022/07/20 13:31:25;;;;;;;6.80;5.10;;;38.10;28.40;;;;;;6305584;28;20475;-75
2022/07/20 13:34:26;;;;;;;7.28;4.93;;;37.90;28.70;;;;;;6304793;28;20020;-74
2022/07/20 13:37:27;;;;;;;7.65;4.90;;;37.70;29.50;;;;;;6299182;28;20032;-75
2022/07/20 13:40:28;;;;;;;8.27;4.97;;;37.80;29.80;;;;;;6298705;28;20024;-75
2022/07/20 13:43:29;;;;;;;8.70;5.60;;;37.70;29.90;;;;;;6304214;28;20048;-75
2022/07/20 13:46:30;;;;;;;11.43;5.88;;;37.50;29.90;;;;;;6304961;28;20025;-75
2022/07/20 13:49:31;;;;;;;8.95;5.28;;;37.30;29.90;;;;;;6304245;28;20033;-75
2022/07/20 13:52:32;;;;;;;8.98;4.93;;;37.20;30.00;;;;;;6336873;28;20342;-75
2022/07/20 13:55:33;;;;;;;16.27;5.22;;;37.00;30.00;;;;;;6298391;28;20032;-75
2022/07/20 13:58:35;;;;;;;7.35;5.18;;;37.00;30.00;;;;;;6297175;28;20035;-76
2022/07/20 14:01:44;;;;;;;6.45;5.40;;;36.90;30.00;;;;;;6300941;28;20032;-75
2022/07/20 14:04:44;;;;;;;8.18;5.05;;;36.80;30.10;;;;;;6304853;28;20025;-75
2022/07/20 14:07:45;;;;;;;6.00;4.78;;;36.70;30.10;;;;;;6305722;28;20424;-75
2022/07/20 14:10:46;;;;;;;6.47;4.93;;;36.70;30.20;;;;;;6304691;28;20356;-75
2022/07/20 14:13:47;;;;;;;9.05;5.13;;;36.70;30.20;;;;;;6304513;28;20564;-74
2022/07/20 14:16:48;;;;;;;9.32;4.68;;;36.70;30.00;;;;;;6302257;28;20057;-75
2022/07/20 14:19:49;;;;;;;5.97;4.53;;;36.90;29.90;;;;;;6281408;28;20492;-75
2022/07/20 14:22:50;;;;;;;8.27;5.03;;;37.10;29.70;;;;;;6314765;28;20477;-75
2022/07/20 14:25:51;;;;;;;5.57;4.35;;;37.20;29.40;;;;;;6301199;28;20366;-75
2022/07/20 14:28:52;;;;;;;5.93;4.38;;;37.20;29.10;;;;;;6299201;28;20059;-74
2022/07/20 14:31:53;;;;;;;5.30;4.75;;;37.40;29.00;;;;;;6295591;28;20090;-74
2022/07/20 14:34:54;;;;;;;6.20;4.85;;;37.50;28.90;;;;;;6291092;28;20515;-74
2022/07/20 14:37:55;;;;;;;5.75;4.63;;;37.90;29.10;;;;;;6292472;28;20029;-74
2022/07/20 14:40:56;;;;;;;7.72;4.82;;;38.20;28.80;;;;;;6283377;28;20031;-75
2022/07/20 14:43:57;;;;;;;9.05;4.47;;;38.60;28.20;;;;;;6284465;28;20488;-75
2022/07/20 14:46:58;;;;;;;6.20;4.05;;;38.70;27.50;;;;;;6282029;28;20186;-74
2022/07/20 14:49:59;;;;;;;6.43;3.58;;;38.80;27.20;;;;;;6283023;28;20039;-75
2022/07/20 14:53:03;;;;;;;7.18;3.80;;;38.70;27.40;;;;;;6275060;28;20115;-74
2022/07/20 14:56:04;;;;;;;6.18;3.40;;;38.60;27.70;;;;;;6292511;28;20020;-74
2022/07/20 14:59:06;;;;;;;4.75;3.97;;;38.60;27.20;;;;;;6281097;28;20516;-75
2022/07/20 15:02:06;;;;;;;10.43;3.10;;;38.60;27.10;;;;;;6288365;28;20028;-75
2022/07/20 15:05:08;;;;;;;3.92;3.47;;;38.50;26.90;;;;;;6294200;28;20039;-75
2022/07/20 15:08:09;;;;;;;5.15;3.70;;;38.30;26.50;;;;;;6283383;28;20049;-74
2022/07/20 15:11:10;;;;;;;9.88;3.60;;;38.20;26.40;;;;;;6286648;28;20031;-74
2022/07/20 15:14:11;;;;;;;7.53;3.42;;;38.20;26.30;;;;;;6299306;28;20482;-75
2022/07/20 15:17:13;;;;;;;3.40;3.05;;;38.10;26.20;;;;;;6287629;28;20028;-75
2022/07/20 15:20:14;;;;;;;6.28;3.13;;;38.10;26.00;;;;;;6303779;28;20375;-75
2022/07/20 15:23:15;;;;;;;3.63;3.10;;;38.20;25.60;;;;;;6273040;28;20045;-75
2022/07/20 15:26:16;;;;;;;6.97;3.42;;;38.50;25.30;;;;;;6284680;28;20024;-73
2022/07/20 15:29:17;;;;;;;3.60;2.95;;;39.60;24.20;;;;;;6284245;28;20020;-74
2022/07/20 15:32:19;;;;;;;6.55;3.35;;;41.10;23.10;;;;;;6269929;28;20087;-76
2022/07/20 15:35:20;;;;;;;4.22;3.20;;;42.20;22.10;;;;;;6293707;28;20051;-76
2022/07/20 15:38:21;;;;;;;6.68;3.35;;;43.10;21.30;;;;;;6281012;28;20029;-74
2022/07/20 15:41:21;;;;;;;4.85;3.22;;;44.00;20.50;;;;;;6296597;28;20373;-74
2022/07/20 15:44:24;;;;;;;3.53;3.15;;;44.80;19.80;;;;;;6282262;28;20040;-76
2022/07/20 15:47:25;;;;;;;7.32;3.05;;;45.40;19.10;;;;;;6284852;28;20035;-75